sensor_id;sensor_type;location;lat;lon;timestamp;P1;durP1;ratioP1;P2;durP2;ratioP2
20535;SDS011;10426;49.420;8.390;2024-01-30T00:00:42;11.15;;;9.95;;
20535;SDS011;10426;49.420;8.390;2024-01-30T00:03:08;11.15;;;9.88;;
20535;SDS011;10426;49.420;8.390;2024-01-30T00:05:36;10.45;;;9.43;;
20535;SDS011;10426;49.420;8.390;2024-01-30T00:08:03;11.80;;;9.68;;
20535;SDS011;10426;49.420;8.390;2024-01-30T00:10:30;10.68;;;9.40;;
20535;SDS011;10426;49.420;8.390;2024-01-30T00:12:56;10.73;;;9.63;;
20535;SDS011;10426;49.420;8.390;2024-01-30T00:15:23;11.35;;;9.30;;
20535;SDS011;10426;49.420;8.390;2024-01-30T00:17:49;10.73;;;9.63;;
20535;SDS011;10426;49.420;8.390;2024-01-30T00:20:17;10.30;;;9.27;;
20535;SDS011;10426;49.420;8.390;2024-01-30T00:22:45;10.43;;;9.43;;
20535;SDS011;10426;49.420;8.390;2024-01-30T00:25:12;10.07;;;9.07;;
20535;SDS011;10426;49.420;8.390;2024-01-30T00:27:39;12.20;;;9.63;;
20535;SDS011;10426;49.420;8.390;2024-01-30T00:30:06;11.85;;;9.88;;
20535;SDS011;10426;49.420;8.390;2024-01-30T00:32:33;11.88;;;9.93;;
20535;SDS011;10426;49.420;8.390;2024-01-30T00:34:59;10.93;;;9.50;;
20535;SDS011;10426;49.420;8.390;2024-01-30T00:37:26;10.80;;;9.40;;
20535;SDS011;10426;49.420;8.390;2024-01-30T00:39:54;11.07;;;9.60;;
20535;SDS011;10426;49.420;8.390;2024-01-30T00:42:21;11.27;;;9.77;;
20535;SDS011;10426;49.420;8.390;2024-01-30T00:44:49;10.95;;;9.85;;
20535;SDS011;10426;49.420;8.390;2024-01-30T00:47:15;10.75;;;9.63;;
20535;SDS011;10426;49.420;8.390;2024-01-30T00:49:42;11.18;;;9.90;;
20535;SDS011;10426;49.420;8.390;2024-01-30T00:52:09;11.00;;;9.43;;
20535;SDS011;10426;49.420;8.390;2024-01-30T00:54:35;10.30;;;8.20;;
20535;SDS011;10426;49.420;8.390;2024-01-30T00:57:03;10.07;;;8.40;;
20535;SDS011;10426;49.420;8.390;2024-01-30T00:59:30;11.13;;;8.68;;
20535;SDS011;10426;49.420;8.390;2024-01-30T01:01:57;9.30;;;8.40;;
20535;SDS011;10426;49.420;8.390;2024-01-30T01:04:23;9.40;;;8.50;;
20535;SDS011;10426;49.420;8.390;2024-01-30T01:06:50;11.05;;;8.85;;
20535;SDS011;10426;49.420;8.390;2024-01-30T01:09:16;10.38;;;8.73;;
20535;SDS011;10426;49.420;8.390;2024-01-30T01:11:43;10.52;;;8.52;;
20535;SDS011;10426;49.420;8.390;2024-01-30T01:14:11;10.32;;;8.52;;
20535;SDS011;10426;49.420;8.390;2024-01-30T01:16:38;10.45;;;9.00;;
20535;SDS011;10426;49.420;8.390;2024-01-30T01:19:04;9.88;;;8.88;;
20535;SDS011;10426;49.420;8.390;2024-01-30T01:21:31;10.03;;;8.70;;
20535;SDS011;10426;49.420;8.390;2024-01-30T01:23:58;10.50;;;8.70;;
20535;SDS011;10426;49.420;8.390;2024-01-30T01:26:24;9.52;;;8.57;;
20535;SDS011;10426;49.420;8.390;2024-01-30T01:28:51;9.73;;;8.70;;
20535;SDS011;10426;49.420;8.390;2024-01-30T01:31:19;10.00;;;8.82;;
20535;SDS011;10426;49.420;8.390;2024-01-30T01:33:50;9.43;;;8.52;;
20535;SDS011;10426;49.420;8.390;2024-01-30T01:36:16;9.68;;;8.68;;
20535;SDS011;10426;49.420;8.390;2024-01-30T01:38:43;10.00;;;8.88;;
20535;SDS011;10426;49.420;8.390;2024-01-30T01:41:09;10.55;;;8.75;;
20535;SDS011;10426;49.420;8.390;2024-01-30T01:43:36;9.32;;;8.38;;
20535;SDS011;10426;49.420;8.390;2024-01-30T01:46:03;9.48;;;8.55;;
20535;SDS011;10426;49.420;8.390;2024-01-30T01:48:31;9.40;;;8.50;;
20535;SDS011;10426;49.420;8.390;2024-01-30T01:50:58;9.75;;;8.80;;
20535;SDS011;10426;49.420;8.390;2024-01-30T01:53:25;10.60;;;8.63;;
20535;SDS011;10426;49.420;8.390;2024-01-30T01:55:53;8.87;;;8.07;;
20535;SDS011;10426;49.420;8.390;2024-01-30T01:58:20;8.88;;;8.02;;
20535;SDS011;10426;49.420;8.390;2024-01-30T02:00:47;9.48;;;8.50;;
20535;SDS011;10426;49.420;8.390;2024-01-30T02:03:14;8.90;;;8.02;;
20535;SDS011;10426;49.420;8.390;2024-01-30T02:05:43;9.30;;;7.90;;
20535;SDS011;10426;49.420;8.390;2024-01-30T02:08:10;9.18;;;8.20;;
20535;SDS011;10426;49.420;8.390;2024-01-30T02:10:37;8.90;;;8.10;;
20535;SDS011;10426;49.420;8.390;2024-01-30T02:13:03;8.35;;;7.55;;
20535;SDS011;10426;49.420;8.390;2024-01-30T02:15:30;8.83;;;7.93;;
20535;SDS011;10426;49.420;8.390;2024-01-30T02:17:57;9.45;;;8.05;;
20535;SDS011;10426;49.420;8.390;2024-01-30T02:20:23;9.18;;;8.10;;
20535;SDS011;10426;49.420;8.390;2024-01-30T02:22:52;8.57;;;7.68;;
20535;SDS011;10426;49.420;8.390;2024-01-30T02:25:19;8.13;;;7.43;;
20535;SDS011;10426;49.420;8.390;2024-01-30T02:27:45;9.07;;;8.18;;
20535;SDS011;10426;49.420;8.390;2024-01-30T02:30:12;8.20;;;7.40;;
20535;SDS011;10426;49.420;8.390;2024-01-30T02:32:39;7.90;;;7.10;;
20535;SDS011;10426;49.420;8.390;2024-01-30T02:35:06;8.30;;;7.20;;
20535;SDS011;10426;49.420;8.390;2024-01-30T02:37:32;8.75;;;7.47;;
20535;SDS011;10426;49.420;8.390;2024-01-30T02:40:00;7.90;;;6.97;;
20535;SDS011;10426;49.420;8.390;2024-01-30T02:42:27;7.80;;;7.00;;
20535;SDS011;10426;49.420;8.390;2024-01-30T02:44:54;8.40;;;7.32;;
20535;SDS011;10426;49.420;8.390;2024-01-30T02:47:20;8.15;;;7.28;;
20535;SDS011;10426;49.420;8.390;2024-01-30T02:49:47;8.43;;;7.53;;
20535;SDS011;10426;49.420;8.390;2024-01-30T02:52:14;7.93;;;6.97;;
20535;SDS011;10426;49.420;8.390;2024-01-30T02:54:40;8.02;;;7.32;;
20535;SDS011;10426;49.420;8.390;2024-01-30T02:57:08;8.02;;;7.20;;
20535;SDS011;10426;49.420;8.390;2024-01-30T02:59:35;7.50;;;6.80;;
20535;SDS011;10426;49.420;8.390;2024-01-30T03:02:02;7.63;;;6.93;;
20535;SDS011;10426;49.420;8.390;2024-01-30T03:04:28;8.77;;;7.88;;
20535;SDS011;10426;49.420;8.390;2024-01-30T03:06:55;8.05;;;7.20;;
20535;SDS011;10426;49.420;8.390;2024-01-30T03:09:22;8.07;;;7.28;;
20535;SDS011;10426;49.420;8.390;2024-01-30T03:11:48;8.95;;;7.53;;
20535;SDS011;10426;49.420;8.390;2024-01-30T03:14:16;7.57;;;6.88;;
20535;SDS011;10426;49.420;8.390;2024-01-30T03:16:43;8.23;;;7.40;;
20535;SDS011;10426;49.420;8.390;2024-01-30T03:19:10;8.18;;;7.38;;
20535;SDS011;10426;49.420;8.390;2024-01-30T03:21:36;7.88;;;7.18;;
20535;SDS011;10426;49.420;8.390;2024-01-30T03:24:03;8.07;;;7.27;;
20535;SDS011;10426;49.420;8.390;2024-01-30T03:26:30;8.32;;;7.47;;
20535;SDS011;10426;49.420;8.390;2024-01-30T03:28:56;8.32;;;7.43;;
20535;SDS011;10426;49.420;8.390;2024-01-30T03:31:24;8.20;;;7.40;;
20535;SDS011;10426;49.420;8.390;2024-01-30T03:33:51;7.85;;;7.05;;
20535;SDS011;10426;49.420;8.390;2024-01-30T03:36:17;8.57;;;7.43;;
20535;SDS011;10426;49.420;8.390;2024-01-30T03:38:44;9.10;;;7.25;;
20535;SDS011;10426;49.420;8.390;2024-01-30T03:41:11;8.00;;;7.20;;
20535;SDS011;10426;49.420;8.390;2024-01-30T03:43:37;8.00;;;7.28;;
20535;SDS011;10426;49.420;8.390;2024-01-30T03:46:04;8.57;;;7.10;;
20535;SDS011;10426;49.420;8.390;2024-01-30T03:48:32;7.63;;;6.88;;
20535;SDS011;10426;49.420;8.390;2024-01-30T03:50:59;8.40;;;7.60;;
20535;SDS011;10426;49.420;8.390;2024-01-30T03:53:25;7.93;;;6.93;;
20535;SDS011;10426;49.420;8.390;2024-01-30T03:55:52;8.10;;;7.30;;
20535;SDS011;10426;49.420;8.390;2024-01-30T03:58:19;8.00;;;7.20;;
20535;SDS011;10426;49.420;8.390;2024-01-30T04:00:45;8.52;;;7.25;;
20535;SDS011;10426;49.420;8.390;2024-01-30T04:03:12;8.05;;;7.25;;
20535;SDS011;10426;49.420;8.390;2024-01-30T04:05:40;8.13;;;7.32;;
20535;SDS011;10426;49.420;8.390;2024-01-30T04:08:07;8.10;;;7.30;;
20535;SDS011;10426;49.420;8.390;2024-01-30T04:10:33;8.73;;;7.30;;
20535;SDS011;10426;49.420;8.390;2024-01-30T04:13:00;8.40;;;7.60;;
20535;SDS011;10426;49.420;8.390;2024-01-30T04:15:27;10.80;;;9.70;;
20535;SDS011;10426;49.420;8.390;2024-01-30T04:17:56;41.97;;;23.05;;
20535;SDS011;10426;49.420;8.390;2024-01-30T04:20:23;32.08;;;18.95;;
20535;SDS011;10426;49.420;8.390;2024-01-30T04:22:51;21.98;;;13.52;;
20535;SDS011;10426;49.420;8.390;2024-01-30T04:25:18;13.07;;;10.05;;
20535;SDS011;10426;49.420;8.390;2024-01-30T04:27:44;13.23;;;9.75;;
20535;SDS011;10426;49.420;8.390;2024-01-30T04:30:11;10.43;;;8.93;;
20535;SDS011;10426;49.420;8.390;2024-01-30T04:32:38;9.85;;;8.18;;
20535;SDS011;10426;49.420;8.390;2024-01-30T04:35:04;9.48;;;7.65;;
20535;SDS011;10426;49.420;8.390;2024-01-30T04:37:31;8.50;;;7.63;;
20535;SDS011;10426;49.420;8.390;2024-01-30T04:39:59;8.70;;;7.80;;
20535;SDS011;10426;49.420;8.390;2024-01-30T04:42:26;8.82;;;7.78;;
20535;SDS011;10426;49.420;8.390;2024-01-30T04:44:52;7.97;;;7.18;;
20535;SDS011;10426;49.420;8.390;2024-01-30T04:47:19;8.05;;;7.35;;
20535;SDS011;10426;49.420;8.390;2024-01-30T04:49:45;9.52;;;7.55;;
20535;SDS011;10426;49.420;8.390;2024-01-30T04:52:12;7.70;;;7.00;;
20535;SDS011;10426;49.420;8.390;2024-01-30T04:54:39;8.98;;;7.60;;
20535;SDS011;10426;49.420;8.390;2024-01-30T04:57:07;8.73;;;7.93;;
20535;SDS011;10426;49.420;8.390;2024-01-30T04:59:37;8.38;;;7.43;;
20535;SDS011;10426;49.420;8.390;2024-01-30T05:02:03;8.48;;;7.68;;
20535;SDS011;10426;49.420;8.390;2024-01-30T05:04:30;9.45;;;8.43;;
20535;SDS011;10426;49.420;8.390;2024-01-30T05:06:57;9.57;;;8.00;;
20535;SDS011;10426;49.420;8.390;2024-01-30T05:09:23;8.40;;;7.57;;
20535;SDS011;10426;49.420;8.390;2024-01-30T05:11:50;8.77;;;7.88;;
20535;SDS011;10426;49.420;8.390;2024-01-30T05:14:18;8.02;;;7.10;;
20535;SDS011;10426;49.420;8.390;2024-01-30T05:16:45;10.40;;;7.03;;
20535;SDS011;10426;49.420;8.390;2024-01-30T05:19:12;8.20;;;7.50;;
20535;SDS011;10426;49.420;8.390;2024-01-30T05:21:39;9.38;;;8.43;;
20535;SDS011;10426;49.420;8.390;2024-01-30T05:24:06;9.85;;;8.90;;
20535;SDS011;10426;49.420;8.390;2024-01-30T05:26:33;8.65;;;7.85;;
20535;SDS011;10426;49.420;8.390;2024-01-30T05:28:59;10.32;;;9.43;;
20535;SDS011;10426;49.420;8.390;2024-01-30T05:31:27;9.82;;;8.82;;
20535;SDS011;10426;49.420;8.390;2024-01-30T05:33:54;8.98;;;8.07;;
20535;SDS011;10426;49.420;8.390;2024-01-30T05:36:20;8.93;;;7.78;;
20535;SDS011;10426;49.420;8.390;2024-01-30T05:38:47;8.60;;;7.68;;
20535;SDS011;10426;49.420;8.390;2024-01-30T05:41:14;8.93;;;8.05;;
20535;SDS011;10426;49.420;8.390;2024-01-30T05:43:41;8.55;;;7.60;;
20535;SDS011;10426;49.420;8.390;2024-01-30T05:46:07;8.77;;;7.90;;
20535;SDS011;10426;49.420;8.390;2024-01-30T05:48:36;9.63;;;8.13;;
20535;SDS011;10426;49.420;8.390;2024-01-30T05:51:03;8.75;;;7.85;;
20535;SDS011;10426;49.420;8.390;2024-01-30T05:53:30;9.63;;;7.90;;
20535;SDS011;10426;49.420;8.390;2024-01-30T05:55:56;8.48;;;7.68;;
20535;SDS011;10426;49.420;8.390;2024-01-30T05:58:23;8.77;;;7.93;;
20535;SDS011;10426;49.420;8.390;2024-01-30T06:00:49;9.82;;;8.43;;
20535;SDS011;10426;49.420;8.390;2024-01-30T06:03:16;11.40;;;8.80;;
20535;SDS011;10426;49.420;8.390;2024-01-30T06:05:44;9.93;;;8.90;;
20535;SDS011;10426;49.420;8.390;2024-01-30T06:08:11;11.68;;;8.88;;
20535;SDS011;10426;49.420;8.390;2024-01-30T06:10:37;9.77;;;8.70;;
20535;SDS011;10426;49.420;8.390;2024-01-30T06:13:04;10.02;;;8.82;;
20535;SDS011;10426;49.420;8.390;2024-01-30T06:15:31;10.20;;;9.20;;
20535;SDS011;10426;49.420;8.390;2024-01-30T06:17:58;9.68;;;8.77;;
20535;SDS011;10426;49.420;8.390;2024-01-30T06:20:24;9.60;;;8.70;;
20535;SDS011;10426;49.420;8.390;2024-01-30T06:22:52;10.23;;;9.23;;
20535;SDS011;10426;49.420;8.390;2024-01-30T06:25:19;9.98;;;8.98;;
20535;SDS011;10426;49.420;8.390;2024-01-30T06:27:46;12.23;;;9.52;;
20535;SDS011;10426;49.420;8.390;2024-01-30T06:30:12;10.95;;;9.95;;
20535;SDS011;10426;49.420;8.390;2024-01-30T06:32:39;13.67;;;12.33;;
20535;SDS011;10426;49.420;8.390;2024-01-30T06:35:06;12.25;;;11.15;;
20535;SDS011;10426;49.420;8.390;2024-01-30T06:37:33;11.40;;;10.20;;
20535;SDS011;10426;49.420;8.390;2024-01-30T06:40:01;13.52;;;12.13;;
20535;SDS011;10426;49.420;8.390;2024-01-30T06:42:30;12.05;;;10.00;;
20535;SDS011;10426;49.420;8.390;2024-01-30T06:44:56;11.23;;;10.23;;
20535;SDS011;10426;49.420;8.390;2024-01-30T06:47:23;10.43;;;9.30;;
20535;SDS011;10426;49.420;8.390;2024-01-30T06:49:50;11.35;;;9.43;;
20535;SDS011;10426;49.420;8.390;2024-01-30T06:52:16;11.73;;;9.25;;
20535;SDS011;10426;49.420;8.390;2024-01-30T06:54:43;11.93;;;9.70;;
20535;SDS011;10426;49.420;8.390;2024-01-30T06:57:11;10.38;;;8.75;;
20535;SDS011;10426;49.420;8.390;2024-01-30T06:59:39;10.13;;;9.13;;
20535;SDS011;10426;49.420;8.390;2024-01-30T07:02:08;10.18;;;9.18;;
20535;SDS011;10426;49.420;8.390;2024-01-30T07:04:35;9.60;;;8.60;;
20535;SDS011;10426;49.420;8.390;2024-01-30T07:07:02;9.60;;;8.70;;
20535;SDS011;10426;49.420;8.390;2024-01-30T07:09:30;9.20;;;8.27;;
20535;SDS011;10426;49.420;8.390;2024-01-30T07:11:56;10.13;;;9.13;;
20535;SDS011;10426;49.420;8.390;2024-01-30T07:14:25;9.45;;;8.45;;
20535;SDS011;10426;49.420;8.390;2024-01-30T07:16:51;10.17;;;9.07;;
20535;SDS011;10426;49.420;8.390;2024-01-30T07:19:18;10.18;;;9.20;;
20535;SDS011;10426;49.420;8.390;2024-01-30T07:21:45;10.27;;;9.15;;
20535;SDS011;10426;49.420;8.390;2024-01-30T07:24:11;9.57;;;8.60;;
20535;SDS011;10426;49.420;8.390;2024-01-30T07:26:38;10.57;;;9.00;;
20535;SDS011;10426;49.420;8.390;2024-01-30T07:29:04;11.73;;;8.75;;
20535;SDS011;10426;49.420;8.390;2024-01-30T07:31:32;10.05;;;8.90;;
20535;SDS011;10426;49.420;8.390;2024-01-30T07:33:59;9.10;;;8.20;;
20535;SDS011;10426;49.420;8.390;2024-01-30T07:36:25;9.95;;;8.35;;
20535;SDS011;10426;49.420;8.390;2024-01-30T07:38:52;8.87;;;7.97;;
20535;SDS011;10426;49.420;8.390;2024-01-30T07:41:20;9.55;;;8.55;;
20535;SDS011;10426;49.420;8.390;2024-01-30T07:43:46;13.50;;;11.68;;
20535;SDS011;10426;49.420;8.390;2024-01-30T07:46:13;16.75;;;11.75;;
20535;SDS011;10426;49.420;8.390;2024-01-30T07:48:42;12.88;;;10.30;;
20535;SDS011;10426;49.420;8.390;2024-01-30T07:51:08;10.65;;;9.20;;
20535;SDS011;10426;49.420;8.390;2024-01-30T07:53:35;10.77;;;8.95;;
20535;SDS011;10426;49.420;8.390;2024-01-30T07:56:02;9.75;;;8.75;;
20535;SDS011;10426;49.420;8.390;2024-01-30T07:58:29;9.02;;;8.07;;
20535;SDS011;10426;49.420;8.390;2024-01-30T08:00:55;9.70;;;8.70;;
20535;SDS011;10426;49.420;8.390;2024-01-30T08:03:23;9.35;;;8.35;;
20535;SDS011;10426;49.420;8.390;2024-01-30T08:05:51;9.73;;;8.77;;
20535;SDS011;10426;49.420;8.390;2024-01-30T08:08:18;10.05;;;8.93;;
20535;SDS011;10426;49.420;8.390;2024-01-30T08:10:44;10.30;;;8.95;;
20535;SDS011;10426;49.420;8.390;2024-01-30T08:13:11;10.15;;;9.07;;
20535;SDS011;10426;49.420;8.390;2024-01-30T08:15:38;10.10;;;9.15;;
20535;SDS011;10426;49.420;8.390;2024-01-30T08:18:04;10.48;;;8.82;;
20535;SDS011;10426;49.420;8.390;2024-01-30T08:20:32;9.70;;;8.70;;
20535;SDS011;10426;49.420;8.390;2024-01-30T08:23:00;10.35;;;9.10;;
20535;SDS011;10426;49.420;8.390;2024-01-30T08:25:27;10.98;;;9.18;;
20535;SDS011;10426;49.420;8.390;2024-01-30T08:27:53;9.65;;;8.77;;
20535;SDS011;10426;49.420;8.390;2024-01-30T08:30:20;10.27;;;9.27;;
20535;SDS011;10426;49.420;8.390;2024-01-30T08:32:46;11.67;;;10.37;;
20535;SDS011;10426;49.420;8.390;2024-01-30T08:35:13;11.00;;;9.73;;
20535;SDS011;10426;49.420;8.390;2024-01-30T08:37:41;10.80;;;9.70;;
20535;SDS011;10426;49.420;8.390;2024-01-30T08:40:09;10.57;;;9.48;;
20535;SDS011;10426;49.420;8.390;2024-01-30T08:42:36;11.20;;;9.75;;
20535;SDS011;10426;49.420;8.390;2024-01-30T08:45:03;10.88;;;9.73;;
20535;SDS011;10426;49.420;8.390;2024-01-30T08:47:30;10.85;;;9.85;;
20535;SDS011;10426;49.420;8.390;2024-01-30T08:49:57;11.10;;;9.93;;
20535;SDS011;10426;49.420;8.390;2024-01-30T08:52:23;10.40;;;9.35;;
20535;SDS011;10426;49.420;8.390;2024-01-30T08:54:50;10.45;;;9.35;;
20535;SDS011;10426;49.420;8.390;2024-01-30T08:57:18;10.27;;;9.27;;
20535;SDS011;10426;49.420;8.390;2024-01-30T08:59:44;10.15;;;9.05;;
20535;SDS011;10426;49.420;8.390;2024-01-30T09:02:12;10.27;;;9.27;;
20535;SDS011;10426;49.420;8.390;2024-01-30T09:04:41;10.50;;;9.45;;
20535;SDS011;10426;49.420;8.390;2024-01-30T09:07:08;12.85;;;9.80;;
20535;SDS011;10426;49.420;8.390;2024-01-30T09:09:35;10.45;;;9.35;;
20535;SDS011;10426;49.420;8.390;2024-01-30T09:12:02;10.68;;;9.68;;
20535;SDS011;10426;49.420;8.390;2024-01-30T09:14:33;10.97;;;9.73;;
20535;SDS011;10426;49.420;8.390;2024-01-30T09:17:00;10.48;;;9.40;;
20535;SDS011;10426;49.420;8.390;2024-01-30T09:19:28;10.00;;;9.00;;
20535;SDS011;10426;49.420;8.390;2024-01-30T09:21:57;10.43;;;9.43;;
20535;SDS011;10426;49.420;8.390;2024-01-30T09:24:23;10.40;;;9.40;;
20535;SDS011;10426;49.420;8.390;2024-01-30T09:26:50;12.18;;;10.48;;
20535;SDS011;10426;49.420;8.390;2024-01-30T09:29:16;10.73;;;9.63;;
20535;SDS011;10426;49.420;8.390;2024-01-30T09:31:44;11.55;;;10.00;;
20535;SDS011;10426;49.420;8.390;2024-01-30T09:34:11;10.60;;;9.60;;
20535;SDS011;10426;49.420;8.390;2024-01-30T09:36:38;10.75;;;9.68;;
20535;SDS011;10426;49.420;8.390;2024-01-30T09:39:04;11.27;;;10.00;;
20535;SDS011;10426;49.420;8.390;2024-01-30T09:41:32;11.73;;;9.75;;
20535;SDS011;10426;49.420;8.390;2024-01-30T09:43:59;10.90;;;9.80;;
20535;SDS011;10426;49.420;8.390;2024-01-30T09:46:26;11.63;;;9.77;;
20535;SDS011;10426;49.420;8.390;2024-01-30T09:48:54;10.57;;;9.48;;
20535;SDS011;10426;49.420;8.390;2024-01-30T09:51:21;11.50;;;9.57;;
20535;SDS011;10426;49.420;8.390;2024-01-30T09:53:48;14.13;;;12.18;;
20535;SDS011;10426;49.420;8.390;2024-01-30T09:56:15;51.85;;;27.23;;
20535;SDS011;10426;49.420;8.390;2024-01-30T09:58:43;17.80;;;12.50;;
20535;SDS011;10426;49.420;8.390;2024-01-30T10:01:09;10.95;;;9.85;;
20535;SDS011;10426;49.420;8.390;2024-01-30T10:03:36;11.20;;;9.73;;
20535;SDS011;10426;49.420;8.390;2024-01-30T10:06:04;10.23;;;9.23;;
20535;SDS011;10426;49.420;8.390;2024-01-30T10:08:31;9.95;;;9.05;;
20535;SDS011;10426;49.420;8.390;2024-01-30T10:10:58;11.18;;;10.00;;
20535;SDS011;10426;49.420;8.390;2024-01-30T10:13:25;10.85;;;9.75;;
20535;SDS011;10426;49.420;8.390;2024-01-30T10:15:52;11.23;;;10.05;;
20535;SDS011;10426;49.420;8.390;2024-01-30T10:18:20;11.57;;;10.38;;
20535;SDS011;10426;49.420;8.390;2024-01-30T10:20:48;11.10;;;10.00;;
20535;SDS011;10426;49.420;8.390;2024-01-30T10:23:16;10.55;;;9.48;;
20535;SDS011;10426;49.420;8.390;2024-01-30T10:25:44;10.95;;;9.63;;
20535;SDS011;10426;49.420;8.390;2024-01-30T10:28:11;10.63;;;9.52;;
20535;SDS011;10426;49.420;8.390;2024-01-30T10:30:38;10.98;;;9.88;;
20535;SDS011;10426;49.420;8.390;2024-01-30T10:33:04;10.80;;;9.70;;
20535;SDS011;10426;49.420;8.390;2024-01-30T10:35:31;11.50;;;10.00;;
20535;SDS011;10426;49.420;8.390;2024-01-30T10:37:59;10.50;;;9.48;;
20535;SDS011;10426;49.420;8.390;2024-01-30T10:40:27;12.52;;;9.98;;
20535;SDS011;10426;49.420;8.390;2024-01-30T10:42:54;10.75;;;9.65;;
20535;SDS011;10426;49.420;8.390;2024-01-30T10:45:21;12.38;;;10.00;;
20535;SDS011;10426;49.420;8.390;2024-01-30T10:47:49;10.95;;;9.80;;
20535;SDS011;10426;49.420;8.390;2024-01-30T10:50:16;10.38;;;9.30;;
20535;SDS011;10426;49.420;8.390;2024-01-30T10:52:43;14.15;;;10.18;;
20535;SDS011;10426;49.420;8.390;2024-01-30T10:55:10;10.82;;;9.68;;
20535;SDS011;10426;49.420;8.390;2024-01-30T10:57:38;11.90;;;10.32;;
20535;SDS011;10426;49.420;8.390;2024-01-30T11:00:05;10.77;;;9.77;;
20535;SDS011;10426;49.420;8.390;2024-01-30T11:02:36;10.43;;;9.40;;
20535;SDS011;10426;49.420;8.390;2024-01-30T11:05:04;9.52;;;8.60;;
20535;SDS011;10426;49.420;8.390;2024-01-30T11:07:31;8.75;;;7.85;;
20535;SDS011;10426;49.420;8.390;2024-01-30T11:10:01;8.38;;;7.60;;
20535;SDS011;10426;49.420;8.390;2024-01-30T11:12:29;8.10;;;7.30;;
20535;SDS011;10426;49.420;8.390;2024-01-30T11:15:04;9.23;;;8.07;;
20535;SDS011;10426;49.420;8.390;2024-01-30T11:17:41;8.13;;;7.37;;
20535;SDS011;10426;49.420;8.390;2024-01-30T11:20:09;10.13;;;7.40;;
20535;SDS011;10426;49.420;8.390;2024-01-30T11:22:36;7.82;;;7.00;;
20535;SDS011;10426;49.420;8.390;2024-01-30T11:25:02;8.50;;;6.80;;
20535;SDS011;10426;49.420;8.390;2024-01-30T11:27:30;7.67;;;7.00;;
20535;SDS011;10426;49.420;8.390;2024-01-30T11:30:00;7.60;;;6.80;;
20535;SDS011;10426;49.420;8.390;2024-01-30T11:32:28;7.60;;;6.90;;
20535;SDS011;10426;49.420;8.390;2024-01-30T11:34:55;7.97;;;7.18;;
20535;SDS011;10426;49.420;8.390;2024-01-30T11:37:21;9.90;;;7.20;;
20535;SDS011;10426;49.420;8.390;2024-01-30T11:39:51;10.70;;;7.55;;
20535;SDS011;10426;49.420;8.390;2024-01-30T11:42:19;8.55;;;7.25;;
20535;SDS011;10426;49.420;8.390;2024-01-30T11:44:46;8.13;;;7.32;;
20535;SDS011;10426;49.420;8.390;2024-01-30T11:47:13;7.65;;;6.95;;
20535;SDS011;10426;49.420;8.390;2024-01-30T11:49:42;8.88;;;7.20;;
20535;SDS011;10426;49.420;8.390;2024-01-30T11:52:08;7.20;;;6.50;;
20535;SDS011;10426;49.420;8.390;2024-01-30T11:54:35;7.32;;;6.72;;
20535;SDS011;10426;49.420;8.390;2024-01-30T11:57:02;7.77;;;7.03;;
20535;SDS011;10426;49.420;8.390;2024-01-30T11:59:29;7.43;;;6.63;;
20535;SDS011;10426;49.420;8.390;2024-01-30T12:01:55;7.25;;;6.55;;
20535;SDS011;10426;49.420;8.390;2024-01-30T12:04:22;7.95;;;6.88;;
20535;SDS011;10426;49.420;8.390;2024-01-30T12:06:51;7.85;;;6.63;;
20535;SDS011;10426;49.420;8.390;2024-01-30T12:09:18;7.30;;;6.60;;
20535;SDS011;10426;49.420;8.390;2024-01-30T12:11:45;8.98;;;8.10;;
20535;SDS011;10426;49.420;8.390;2024-01-30T12:14:11;7.18;;;6.47;;
20535;SDS011;10426;49.420;8.390;2024-01-30T12:16:38;28.10;;;22.88;;
20535;SDS011;10426;49.420;8.390;2024-01-30T12:19:05;9.13;;;8.23;;
20535;SDS011;10426;49.420;8.390;2024-01-30T12:21:32;6.60;;;6.10;;
20535;SDS011;10426;49.420;8.390;2024-01-30T12:24:00;7.60;;;6.80;;
20535;SDS011;10426;49.420;8.390;2024-01-30T12:26:26;7.78;;;6.60;;
20535;SDS011;10426;49.420;8.390;2024-01-30T12:28:54;7.18;;;6.47;;
20535;SDS011;10426;49.420;8.390;2024-01-30T12:31:25;7.32;;;5.85;;
20535;SDS011;10426;49.420;8.390;2024-01-30T12:33:51;6.43;;;5.93;;
20535;SDS011;10426;49.420;8.390;2024-01-30T12:36:18;6.30;;;5.70;;
20535;SDS011;10426;49.420;8.390;2024-01-30T12:38:45;5.37;;;4.97;;
20535;SDS011;10426;49.420;8.390;2024-01-30T12:41:13;6.10;;;5.50;;
20535;SDS011;10426;49.420;8.390;2024-01-30T12:43:39;5.88;;;5.35;;
20535;SDS011;10426;49.420;8.390;2024-01-30T12:46:06;7.30;;;5.47;;
20535;SDS011;10426;49.420;8.390;2024-01-30T12:48:33;6.38;;;5.60;;
20535;SDS011;10426;49.420;8.390;2024-01-30T12:51:00;7.10;;;5.50;;
20535;SDS011;10426;49.420;8.390;2024-01-30T12:53:27;6.55;;;5.32;;
20535;SDS011;10426;49.420;8.390;2024-01-30T12:55:53;6.95;;;5.10;;
20535;SDS011;10426;49.420;8.390;2024-01-30T12:58:22;5.83;;;5.07;;
20535;SDS011;10426;49.420;8.390;2024-01-30T13:00:48;7.05;;;5.20;;
20535;SDS011;10426;49.420;8.390;2024-01-30T13:03:15;5.25;;;4.75;;
20535;SDS011;10426;49.420;8.390;2024-01-30T13:05:42;6.78;;;5.38;;
20535;SDS011;10426;49.420;8.390;2024-01-30T13:08:08;7.25;;;5.70;;
20535;SDS011;10426;49.420;8.390;2024-01-30T13:10:35;6.47;;;5.60;;
20535;SDS011;10426;49.420;8.390;2024-01-30T13:13:02;5.30;;;4.80;;
20535;SDS011;10426;49.420;8.390;2024-01-30T13:15:30;15.73;;;13.77;;
20535;SDS011;10426;49.420;8.390;2024-01-30T13:17:56;10.93;;;9.77;;
20535;SDS011;10426;49.420;8.390;2024-01-30T13:20:23;7.25;;;6.50;;
20535;SDS011;10426;49.420;8.390;2024-01-30T13:22:49;6.00;;;5.50;;
20535;SDS011;10426;49.420;8.390;2024-01-30T13:25:16;7.25;;;4.57;;
20535;SDS011;10426;49.420;8.390;2024-01-30T13:27:43;5.93;;;4.60;;
20535;SDS011;10426;49.420;8.390;2024-01-30T13:30:09;5.80;;;4.63;;
20535;SDS011;10426;49.420;8.390;2024-01-30T13:32:37;4.60;;;4.20;;
20535;SDS011;10426;49.420;8.390;2024-01-30T13:35:06;5.82;;;4.32;;
20535;SDS011;10426;49.420;8.390;2024-01-30T13:37:34;4.03;;;3.73;;
20535;SDS011;10426;49.420;8.390;2024-01-30T13:40:01;4.60;;;4.20;;
20535;SDS011;10426;49.420;8.390;2024-01-30T13:42:28;5.00;;;4.50;;
20535;SDS011;10426;49.420;8.390;2024-01-30T13:44:54;4.35;;;3.95;;
20535;SDS011;10426;49.420;8.390;2024-01-30T13:47:21;4.30;;;4.00;;
20535;SDS011;10426;49.420;8.390;2024-01-30T13:49:49;4.80;;;4.10;;
20535;SDS011;10426;49.420;8.390;2024-01-30T13:52:18;4.43;;;3.80;;
20535;SDS011;10426;49.420;8.390;2024-01-30T13:54:44;4.72;;;4.20;;
20535;SDS011;10426;49.420;8.390;2024-01-30T13:57:11;4.70;;;4.30;;
20535;SDS011;10426;49.420;8.390;2024-01-30T13:59:37;4.67;;;4.27;;
20535;SDS011;10426;49.420;8.390;2024-01-30T14:02:04;5.07;;;4.53;;
20535;SDS011;10426;49.420;8.390;2024-01-30T14:04:33;7.57;;;4.82;;
20535;SDS011;10426;49.420;8.390;2024-01-30T14:07:03;6.18;;;5.03;;
20535;SDS011;10426;49.420;8.390;2024-01-30T14:09:31;6.47;;;5.07;;
20535;SDS011;10426;49.420;8.390;2024-01-30T14:11:58;10.27;;;8.02;;
20535;SDS011;10426;49.420;8.390;2024-01-30T14:14:25;12.77;;;8.80;;
20535;SDS011;10426;49.420;8.390;2024-01-30T14:16:51;5.95;;;5.35;;
20535;SDS011;10426;49.420;8.390;2024-01-30T14:19:18;6.93;;;5.50;;
20535;SDS011;10426;49.420;8.390;2024-01-30T14:21:44;4.80;;;4.40;;
20535;SDS011;10426;49.420;8.390;2024-01-30T14:24:12;5.00;;;4.30;;
20535;SDS011;10426;49.420;8.390;2024-01-30T14:26:39;6.93;;;4.35;;
20535;SDS011;10426;49.420;8.390;2024-01-30T14:29:05;5.50;;;4.10;;
20535;SDS011;10426;49.420;8.390;2024-01-30T14:31:32;5.03;;;4.18;;
20535;SDS011;10426;49.420;8.390;2024-01-30T14:33:59;4.88;;;4.30;;
20535;SDS011;10426;49.420;8.390;2024-01-30T14:36:26;4.70;;;4.30;;
20535;SDS011;10426;49.420;8.390;2024-01-30T14:38:53;4.20;;;3.80;;